Time;durP1;ratioP1;P1;durP2;ratioP2;P2;SDS_P1;SDS_P2;PMS_P1;PMS_P2;Temp;Humidity;BMP_temperature;BMP_pressure;BME280_temperature;BME280_humidity;BME280_pressure;Samples;Min_cycle;Max_cycle;Signal;HPM_P1;HPM_P2
2021/04/20 00:01:40;;;;;;;74.43;40.95;;;8.70;99.90;;;;;;4873302;29;20060;-76
2021/04/20 00:04:07;;;;;;;65.68;39.60;;;8.60;99.90;;;;;;4873887;29;20517;-75
2021/04/20 00:06:34;;;;;;;64.93;38.08;;;8.60;99.90;;;;;;4905185;29;20053;-75
2021/04/20 00:09:01;;;;;;;66.78;38.08;;;8.60;99.90;;;;;;4873458;29;20057;-75
2021/04/20 00:11:27;;;;;;;69.80;39.75;;;8.60;99.90;;;;;;4893649;29;20079;-77
2021/04/20 00:13:53;;;;;;;68.60;39.80;;;8.60;99.90;;;;;;4874902;29;20093;-76
2021/04/20 00:16:20;;;;;;;72.38;40.80;;;8.50;99.90;;;;;;4889153;29;20063;-76
2021/04/20 00:18:46;;;;;;;70.78;38.58;;;8.50;99.90;;;;;;4882191;29;20121;-76
2021/04/20 00:21:13;;;;;;;67.75;38.92;;;8.40;99.90;;;;;;4885455;29;20151;-76
2021/04/20 00:23:39;;;;;;;70.03;39.92;;;8.40;99.90;;;;;;4883127;29;20546;-75
2021/04/20 00:26:06;;;;;;;71.35;39.67;;;8.40;99.90;;;;;;4889791;29;20117;-76
2021/04/20 00:28:32;;;;;;;69.47;40.78;;;8.30;99.90;;;;;;4891364;29;20056;-75
2021/04/20 00:30:59;;;;;;;75.43;39.45;;;8.30;99.90;;;;;;4883497;29;20143;-75
2021/04/20 00:33:26;;;;;;;69.88;39.53;;;8.30;99.90;;;;;;4883551;29;20053;-76
2021/04/20 00:35:52;;;;;;;73.75;40.95;;;8.40;99.90;;;;;;4860251;29;20064;-75
2021/04/20 00:38:19;;;;;;;68.35;36.97;;;8.30;99.90;;;;;;4906017;29;20076;-76
2021/04/20 00:40:45;;;;;;;70.93;40.13;;;8.30;99.90;;;;;;4883943;29;20057;-75
2021/04/20 00:43:12;;;;;;;68.88;37.90;;;8.30;99.90;;;;;;4889403;29;20053;-74
2021/04/20 00:45:39;;;;;;;73.25;39.72;;;8.30;99.90;;;;;;4898186;29;20052;-75
2021/04/20 00:48:07;;;;;;;70.55;39.05;;;8.30;99.90;;;;;;4892533;29;20584;-77
2021/04/20 00:50:36;;;;;;;68.00;36.67;;;8.10;99.90;;;;;;4907121;29;20053;-76
2021/04/20 00:53:04;;;;;;;72.40;38.70;;;8.10;99.90;;;;;;4859511;29;20120;-76
2021/04/20 00:55:31;;;;;;;76.97;40.30;;;8.30;99.90;;;;;;4889406;29;20179;-76
2021/04/20 00:58:02;;;;;;;72.07;38.33;;;8.30;99.90;;;;;;4875193;29;20084;-76
2021/04/20 01:00:30;;;;;;;75.60;39.60;;;8.40;99.90;;;;;;4857492;29;20049;-75
2021/04/20 01:02:57;;;;;;;74.43;41.13;;;8.30;99.90;;;;;;4875176;29;20045;-76
2021/04/20 01:05:44;;;;;;;75.03;41.25;;;8.30;99.90;;;;;;4894568;29;20048;-76
2021/04/20 01:08:19;;;;;;;72.22;39.92;;;8.20;99.90;;;;;;4887823;29;20425;-76
2021/04/20 01:10:48;;;;;;;74.60;39.90;;;8.20;99.90;;;;;;4889280;29;20049;-76
2021/04/20 01:13:24;;;;;;;83.25;40.58;;;8.20;99.90;;;;;;4870885;29;20053;-76
2021/04/20 01:15:52;;;;;;;68.78;39.60;;;8.20;99.90;;;;;;4901652;29;20574;-76
2021/04/20 01:18:24;;;;;;;73.80;38.15;;;8.20;99.90;;;;;;4869909;29;20743;-76
2021/04/20 01:20:57;;;;;;;75.20;38.40;;;8.10;99.90;;;;;;4881768;29;20645;-77
2021/04/20 01:23:48;;;;;;;71.55;39.15;;;8.10;99.90;;;;;;4874630;29;20117;-76
2021/04/20 01:26:15;;;;;;;71.05;38.47;;;8.10;99.90;;;;;;4912029;29;20045;-75
2021/04/20 01:28:43;;;;;;;68.97;38.15;;;8.00;99.90;;;;;;4892304;29;20515;-76
2021/04/20 01:31:14;;;;;;;69.25;39.20;;;8.10;99.90;;;;;;4892891;29;20066;-76
2021/04/20 01:33:44;;;;;;;71.88;38.10;;;8.10;99.90;;;;;;4881575;29;20108;-77
2021/04/20 01:36:14;;;;;;;75.07;39.83;;;8.00;99.90;;;;;;4882600;29;20077;-76
2021/04/20 01:38:48;;;;;;;77.35;41.47;;;8.00;99.90;;;;;;4878239;29;20492;-76
2021/04/20 01:41:16;;;;;;;70.63;38.70;;;8.00;99.90;;;;;;4893501;29;20052;-78
2021/04/20 01:43:43;;;;;;;68.90;39.72;;;8.00;99.90;;;;;;4890444;29;20056;-76
2021/04/20 01:46:10;;;;;;;68.57;38.38;;;8.00;99.90;;;;;;4888324;29;20124;-76
2021/04/20 01:48:37;;;;;;;77.93;40.03;;;8.00;99.90;;;;;;4874936;29;20075;-76
2021/04/20 01:51:05;;;;;;;75.13;40.40;;;8.00;99.90;;;;;;4884640;29;20060;-76
2021/04/20 01:53:31;;;;;;;75.50;39.85;;;7.90;99.90;;;;;;4872514;29;20067;-74
2021/04/20 01:56:03;;;;;;;72.15;38.78;;;7.80;99.90;;;;;;4884797;29;20867;-75
2021/04/20 01:58:31;;;;;;;74.90;40.22;;;7.80;99.90;;;;;;4891329;29;20064;-77
2021/04/20 02:00:59;;;;;;;72.55;38.42;;;7.70;99.90;;;;;;4906444;29;20068;-76
2021/04/20 02:03:27;;;;;;;78.40;40.25;;;7.60;99.90;;;;;;4891484;29;20127;-76
2021/04/20 02:05:55;;;;;;;72.57;37.42;;;7.50;99.90;;;;;;4892564;29;20087;-75
2021/04/20 02:08:21;;;;;;;74.03;39.90;;;7.60;99.90;;;;;;4876514;29;20078;-77
2021/04/20 02:10:48;;;;;;;76.43;38.63;;;7.60;99.90;;;;;;4888714;29;20512;-75
2021/04/20 02:13:15;;;;;;;78.32;39.08;;;7.70;99.90;;;;;;4873137;29;20061;-75
2021/04/20 02:15:43;;;;;;;85.97;44.22;;;7.40;99.90;;;;;;4872383;29;20132;-76
2021/04/20 02:18:10;;;;;;;82.55;44.17;;;7.40;99.90;;;;;;4901415;29;20112;-76
2021/04/20 02:20:38;;;;;;;89.57;46.28;;;7.40;99.90;;;;;;4875129;29;20049;-76
2021/04/20 02:23:05;;;;;;;83.13;43.33;;;7.40;99.90;;;;;;4872870;29;20049;-75
2021/04/20 02:25:33;;;;;;;90.25;43.00;;;7.40;99.90;;;;;;4874916;29;20120;-76
2021/04/20 02:27:59;;;;;;;89.65;42.10;;;7.30;99.90;;;;;;4876420;29;20464;-76
2021/04/20 02:30:27;;;;;;;91.78;42.83;;;7.30;99.90;;;;;;4888689;29;20067;-76
2021/04/20 02:32:55;;;;;;;92.75;43.47;;;7.30;99.90;;;;;;4884177;29;20670;-75
2021/04/20 02:35:23;;;;;;;91.22;44.47;;;7.20;99.90;;;;;;4904084;29;20491;-75
2021/04/20 02:37:49;;;;;;;88.90;44.22;;;7.10;99.90;;;;;;4872385;29;20139;-76
2021/04/20 02:40:21;;;;;;;81.63;40.65;;;7.10;99.90;;;;;;4873685;29;20081;-76
2021/04/20 02:42:49;;;;;;;84.03;42.88;;;7.10;99.90;;;;;;4858375;29;20065;-76
2021/04/20 02:45:17;;;;;;;86.80;42.30;;;7.00;99.90;;;;;;4873329;29;20128;-76
2021/04/20 02:47:44;;;;;;;84.53;42.00;;;6.90;99.90;;;;;;4873461;29;20426;-76
2021/04/20 02:50:31;;;;;;;92.40;42.10;;;6.90;99.90;;;;;;4906805;29;20076;-76
2021/04/20 02:53:00;;;;;;;94.25;42.58;;;6.80;99.90;;;;;;4887991;29;20065;-76
2021/04/20 02:55:26;;;;;;;100.75;46.03;;;6.70;99.90;;;;;;4888188;29;20053;-76
2021/04/20 02:57:55;;;;;;;105.28;46.63;;;6.70;99.90;;;;;;4897078;29;20041;-75
2021/04/20 03:00:24;;;;;;;108.60;48.42;;;6.80;99.90;;;;;;4876105;29;20148;-77
2021/04/20 03:03:00;;;;;;;110.78;48.72;;;6.70;99.90;;;;;;4893582;29;20464;-77
2021/04/20 03:05:28;;;;;;;108.38;45.63;;;6.50;99.90;;;;;;4892002;29;20076;-75
2021/04/20 03:07:55;;;;;;;108.85;46.75;;;6.60;99.90;;;;;;4864718;29;20135;-75
2021/04/20 03:10:23;;;;;;;94.22;43.42;;;6.60;99.90;;;;;;4873948;29;20049;-75
2021/04/20 03:12:50;;;;;;;104.07;47.30;;;6.40;99.90;;;;;;4876232;29;20085;-75
2021/04/20 03:15:18;;;;;;;95.53;44.10;;;6.40;99.90;;;;;;4876022;29;20520;-74
2021/04/20 03:17:46;;;;;;;111.70;46.40;;;6.30;99.90;;;;;;4877149;29;20057;-76
2021/04/20 03:20:16;;;;;;;112.25;48.10;;;6.20;99.90;;;;;;4877966;29;20098;-76
2021/04/20 03:22:43;;;;;;;115.68;49.67;;;6.10;99.90;;;;;;4894686;29;20053;-76
2021/04/20 03:25:10;;;;;;;102.65;46.38;;;6.00;99.90;;;;;;4906613;29;20076;-76
2021/04/20 03:27:43;;;;;;;90.35;42.03;;;5.90;99.90;;;;;;4879097;29;20053;-76
2021/04/20 03:30:11;;;;;;;93.75;46.10;;;5.90;99.90;;;;;;4876692;29;20049;-75
2021/04/20 03:32:40;;;;;;;112.22;48.30;;;5.80;99.90;;;;;;4876243;29;20079;-76
2021/04/20 03:35:37;;;;;;;114.18;46.95;;;5.70;99.90;;;;;;4896127;29;20095;-76
2021/04/20 03:38:30;;;;;;;120.57;48.20;;;5.60;99.90;;;;;;4847395;29;20104;-76
2021/04/20 03:41:14;;;;;;;102.28;43.65;;;5.60;99.90;;;;;;4865340;29;20128;-76
2021/04/20 03:43:44;;;;;;;110.57;46.67;;;5.50;99.90;;;;;;4880280;29;20405;-76
2021/04/20 03:46:19;;;;;;;127.82;49.72;;;5.40;99.90;;;;;;4877926;29;20056;-76
2021/04/20 03:48:48;;;;;;;;;;;5.50;99.90;;;;;;4890562;29;20092;-75
2021/04/20 03:51:18;;;;;;;127.05;46.58;;;5.30;99.90;;;;;;4902184;29;19976;-76
2021/04/20 03:53:48;;;;;;;127.25;47.58;;;5.20;99.90;;;;;;4886698;29;20139;-74
2021/04/20 03:56:17;;;;;;;141.45;52.08;;;5.30;99.90;;;;;;4860925;29;20076;-75
2021/04/20 03:58:45;;;;;;;135.25;48.42;;;5.30;99.90;;;;;;4909322;29;20072;-75
2021/04/20 04:01:13;;;;;;;140.02;49.88;;;5.20;99.90;;;;;;4892801;29;20056;-76
2021/04/20 04:03:46;;;;;;;137.48;49.88;;;5.00;99.90;;;;;;4874304;29;20059;-76
2021/04/20 04:06:14;;;;;;;135.93;50.67;;;4.90;99.90;;;;;;4873941;29;20120;-77
2021/04/20 04:08:43;;;;;;;200.18;60.50;;;4.90;99.90;;;;;;4858880;29;20230;-76
2021/04/20 04:11:12;;;;;;;177.45;57.55;;;4.90;99.90;;;;;;4873666;29;20136;-77
2021/04/20 04:13:42;;;;;;;149.38;53.75;;;4.80;99.90;;;;;;4888879;29;20062;-76
2021/04/20 04:16:13;;;;;;;140.43;49.97;;;4.90;99.90;;;;;;4893037;29;20059;-76
2021/04/20 04:18:44;;;;;;;133.07;50.47;;;4.90;99.90;;;;;;4891969;29;20084;-77
2021/04/20 04:21:14;;;;;;;135.07;49.80;;;4.80;99.90;;;;;;4858401;29;20143;-77
2021/04/20 04:23:47;;;;;;;126.25;49.25;;;4.70;99.90;;;;;;4908558;29;20071;-76
2021/04/20 04:26:25;;;;;;;129.93;48.67;;;4.60;99.90;;;;;;4894183;29;20064;-77
2021/04/20 04:28:55;;;;;;;123.85;47.33;;;4.60;99.90;;;;;;4893306;29;20048;-77
2021/04/20 04:31:22;;;;;;;135.45;50.40;;;4.60;99.90;;;;;;4905459;29;20057;-77
2021/04/20 04:33:50;;;;;;;138.90;50.85;;;4.70;99.90;;;;;;4880417;29;20061;-75
2021/04/20 04:36:18;;;;;;;129.05;49.22;;;4.70;99.90;;;;;;4857523;29;20068;-77
2021/04/20 04:38:45;;;;;;;139.43;52.53;;;4.60;99.90;;;;;;4859430;29;20053;-76
2021/04/20 04:41:12;;;;;;;143.57;53.47;;;4.50;99.90;;;;;;4892611;29;20048;-77
2021/04/20 04:43:42;;;;;;;139.52;54.30;;;4.50;99.90;;;;;;4893101;29;20151;-77
2021/04/20 04:46:09;;;;;;;126.38;48.33;;;4.30;99.90;;;;;;4891700;29;20056;-77
2021/04/20 04:48:37;;;;;;;140.55;50.70;;;4.40;99.90;;;;;;4880833;29;20517;-76
2021/04/20 04:51:06;;;;;;;120.45;47.88;;;4.60;99.90;;;;;;4881401;29;20180;-76
2021/04/20 04:53:34;;;;;;;145.88;51.40;;;4.50;99.90;;;;;;4873952;29;20064;-76
2021/04/20 04:56:02;;;;;;;124.90;50.90;;;4.50;99.90;;;;;;4872641;29;20120;-77
2021/04/20 04:58:31;;;;;;;124.05;50.15;;;4.40;99.90;;;;;;4873784;29;20060;-77
2021/04/20 05:01:02;;;;;;;120.30;48.03;;;4.40;99.90;;;;;;4889586;29;20075;-76
2021/04/20 05:03:29;;;;;;;144.05;55.67;;;4.50;99.90;;;;;;4877360;29;20099;-76
2021/04/20 05:05:59;;;;;;;148.27;53.30;;;4.50;99.90;;;;;;4871586;29;20059;-77
2021/04/20 05:08:26;;;;;;;139.00;56.35;;;4.60;99.90;;;;;;4872729;29;20711;-77
2021/04/20 05:11:00;;;;;;;149.70;51.80;;;4.70;99.90;;;;;;4857404;29;20057;-76
2021/04/20 05:13:26;;;;;;;145.70;52.33;;;4.60;99.90;;;;;;4873365;29;20904;-75
2021/04/20 05:15:53;;;;;;;126.30;50.00;;;4.50;99.90;;;;;;4887788;29;20057;-76
2021/04/20 05:18:22;;;;;;;139.50;52.90;;;4.50;99.90;;;;;;4877228;29;20084;-75
2021/04/20 05:20:49;;;;;;;151.18;55.25;;;4.60;99.90;;;;;;4889602;29;20052;-76
2021/04/20 05:23:17;;;;;;;139.60;55.85;;;4.60;99.90;;;;;;4891218;29;20124;-76
2021/04/20 05:25:44;;;;;;;135.40;54.78;;;4.60;99.90;;;;;;4889882;29;20048;-75
2021/04/20 05:28:11;;;;;;;138.25;54.00;;;4.80;99.90;;;;;;4891201;29;20056;-77
2021/04/20 05:30:37;;;;;;;138.55;55.55;;;4.80;99.90;;;;;;4875649;29;20052;-77
2021/04/20 05:33:05;;;;;;;122.28;52.88;;;4.80;99.90;;;;;;4902843;29;20063;-77
2021/04/20 05:35:31;;;;;;;129.65;54.78;;;4.80;99.90;;;;;;4887661;29;20045;-77
2021/04/20 05:37:58;;;;;;;134.52;57.15;;;4.90;99.90;;;;;;4872717;29;20049;-77
2021/04/20 05:40:27;;;;;;;129.75;53.90;;;4.90;99.90;;;;;;4877528;29;20056;-77
2021/04/20 05:42:55;;;;;;;128.75;53.65;;;5.00;99.90;;;;;;4874926;29;20044;-77
2021/04/20 05:45:22;;;;;;;125.55;54.47;;;5.10;99.90;;;;;;4890885;29;20156;-76
2021/04/20 05:47:50;;;;;;;139.73;52.67;;;5.30;99.90;;;;;;4870465;29;20076;-77
2021/04/20 05:50:28;;;;;;;126.95;50.97;;;5.40;99.90;;;;;;4884631;29;20044;-76
2021/04/20 05:52:57;;;;;;;110.82;50.63;;;5.50;99.90;;;;;;4872363;29;20077;-77
2021/04/20 05:55:24;;;;;;;127.82;53.97;;;5.60;99.90;;;;;;4874462;29;20049;-77
2021/04/20 05:57:53;;;;;;;124.03;52.97;;;5.60;99.90;;;;;;4875009;29;20546;-77
2021/04/20 06:00:22;;;;;;;125.82;53.53;;;5.70;99.90;;;;;;4887292;29;20067;-76
2021/04/20 06:02:51;;;;;;;125.65;54.35;;;5.90;99.90;;;;;;4890851;29;20056;-76
2021/04/20 06:05:22;;;;;;;140.43;59.65;;;6.10;99.90;;;;;;4888020;29;20156;-76
2021/04/20 06:07:52;;;;;;;138.50;58.33;;;6.10;99.90;;;;;;4871524;29;20057;-77
2021/04/20 06:10:19;;;;;;;139.77;61.75;;;6.20;99.90;;;;;;4871180;29;20049;-77
2021/04/20 06:12:47;;;;;;;121.47;59.75;;;6.40;99.90;;;;;;4888374;29;20565;-77
2021/04/20 06:15:17;;;;;;;128.45;57.10;;;6.50;99.90;;;;;;4856455;29;20048;-76
2021/04/20 06:17:44;;;;;;;113.15;53.35;;;6.50;99.90;;;;;;4875511;29;20051;-77
2021/04/20 06:20:13;;;;;;;100.80;52.17;;;6.60;99.90;;;;;;4873697;29;20049;-77
2021/04/20 06:22:42;;;;;;;100.03;49.72;;;6.60;99.90;;;;;;4880258;29;20048;-76
2021/04/20 06:25:14;;;;;;;106.30;56.00;;;6.70;99.90;;;;;;4897640;29;20080;-77
2021/04/20 06:27:41;;;;;;;103.80;56.65;;;6.80;99.90;;;;;;4873615;29;20055;-77
2021/04/20 06:30:09;;;;;;;106.13;57.70;;;6.90;99.90;;;;;;4885527;29;20080;-77
2021/04/20 06:32:41;;;;;;;104.78;54.67;;;7.10;99.90;;;;;;4889663;29;20112;-77
2021/04/20 06:35:11;;;;;;;101.55;54.90;;;7.30;99.90;;;;;;4876792;29;20052;-77
2021/04/20 06:37:39;;;;;;;104.38;55.00;;;7.40;99.90;;;;;;4878883;29;20503;-77
2021/04/20 06:40:20;;;;;;;97.18;53.92;;;7.60;99.90;;;;;;4886608;29;20066;-77
2021/04/20 06:43:03;;;;;;;94.45;50.22;;;7.90;99.90;;;;;;4891917;29;20137;-77
2021/04/20 06:45:35;;;;;;;86.75;50.58;;;8.20;99.90;;;;;;4875382;29;20102;-77
2021/04/20 06:48:24;;;;;;;92.25;52.85;;;8.70;99.90;;;;;;4882592;29;20406;-78
2021/04/20 06:50:55;;;;;;;90.80;53.92;;;9.20;99.90;;;;;;4871334;29;20206;-75
2021/04/20 06:53:29;;;;;;;82.32;51.25;;;9.60;99.90;;;;;;4883847;29;20049;-76
2021/04/20 06:56:20;;;;;;;82.68;53.38;;;10.20;99.90;;;;;;4870423;29;20052;-75
2021/04/20 06:58:53;;;;;;;82.55;54.03;;;10.70;99.90;;;;;;4872758;29;20060;-77
2021/04/20 07:01:34;;;;;;;83.65;56.50;;;11.00;99.90;;;;;;4871556;29;20056;-76
2021/04/20 07:04:30;;;;;;;78.75;53.15;;;11.40;99.90;;;;;;4886961;29;20068;-75
2021/04/20 07:07:33;;;;;;;78.00;52.03;;;11.50;99.90;;;;;;4883099;29;20149;-76
2021/04/20 07:10:18;;;;;;;71.00;49.78;;;11.50;99.90;;;;;;4874539;29;20084;-76
2021/04/20 07:12:48;;;;;;;72.68;50.03;;;11.70;99.90;;;;;;4902860;29;20064;-75
2021/04/20 07:15:21;;;;;;;80.28;53.53;;;11.80;99.90;;;;;;4905734;29;20056;-76
2021/04/20 07:18:17;;;;;;;73.60;50.88;;;11.80;99.90;;;;;;4859749;29;20045;-76
2021/04/20 07:21:10;;;;;;;75.72;49.42;;;12.00;99.90;;;;;;4900186;29;20105;-76
2021/04/20 07:24:14;;;;;;;72.32;47.90;;;12.10;99.90;;;;;;4876727;29;20053;-76
2021/04/20 07:27:24;;;;;;;72.53;48.70;;;12.20;99.90;;;;;;4889765;29;20431;-76
2021/04/20 07:30:14;;;;;;;69.13;47.40;;;12.30;99.90;;;;;;4872363;29;20500;-75
2021/04/20 07:33:21;;;;;;;71.45;47.80;;;12.50;99.90;;;;;;4871919;29;20053;-74
2021/04/20 07:35:56;;;;;;;64.30;44.70;;;12.70;99.90;;;;;;4888955;29;20056;-75
2021/04/20 07:38:47;;;;;;;65.18;45.90;;;13.00;99.90;;;;;;4886304;29;20456;-74
2021/04/20 07:41:45;;;;;;;72.40;47.75;;;13.10;99.90;;;;;;4872378;29;20632;-76
2021/04/20 07:44:47;;;;;;;64.93;47.47;;;13.30;99.90;;;;;;4890488;29;20053;-73
2021/04/20 07:47:16;;;;;;;61.80;45.58;;;13.40;99.90;;;;;;4886036;29;20480;-74
2021/04/20 07:50:01;;;;;;;62.42;45.72;;;13.60;99.90;;;;;;4874517;29;20056;-73
2021/04/20 07:53:04;;;;;;;60.40;43.57;;;13.90;99.90;;;;;;4888912;29;20049;-74
2021/04/20 07:55:37;;;;;;;65.20;45.00;;;14.10;99.90;;;;;;4893447;29;20356;-73
2021/04/20 07:58:10;;;;;;;64.72;46.38;;;14.00;99.90;;;;;;4893079;29;20088;-74
2021/04/20 08:00:45;;;;;;;59.40;45.15;;;14.10;99.90;;;;;;4892571;29;20500;-73
2021/04/20 08:03:33;;;;;;;60.65;44.28;;;14.30;99.90;;;;;;4908652;29;20044;-72
2021/04/20 08:06:25;;;;;;;57.10;42.65;;;14.30;99.90;;;;;;4891406;29;20100;-75
2021/04/20 08:08:57;;;;;;;56.67;42.88;;;14.10;99.90;;;;;;4877238;29;20069;-75
2021/04/20 08:11:42;;;;;;;54.97;41.63;;;14.10;99.90;;;;;;4889330;29;20065;-72
2021/04/20 08:14:14;;;;;;;48.03;39.33;;;14.30;99.90;;;;;;4858700;29;20072;-74
2021/04/20 08:17:02;;;;;;;49.45;39.10;;;14.60;99.90;;;;;;4901301;29;20052;-74
2021/04/20 08:19:37;;;;;;;44.63;37.53;;;14.80;99.90;;;;;;4856235;29;20081;-77
2021/04/20 08:22:07;;;;;;;;;;;14.80;99.90;;;;;;4874649;29;20137;-78
2021/04/20 08:24:44;;;;;;;43.55;36.33;;;14.60;99.90;;;;;;4874508;29;19954;-76
2021/04/20 08:27:20;;;;;;;39.28;32.97;;;14.50;99.90;;;;;;4903990;29;20053;-74
2021/04/20 08:29:56;;;;;;;48.22;37.08;;;14.60;99.90;;;;;;4891166;29;20053;-73
2021/04/20 08:32:27;;;;;;;47.05;37.67;;;14.90;99.90;;;;;;4891634;29;20064;-72
2021/04/20 08:35:17;;;;;;;50.63;39.00;;;15.00;99.90;;;;;;4876678;29;20420;-75
2021/04/20 08:37:54;;;;;;;53.47;40.47;;;15.20;99.90;;;;;;4877799;29;20052;-76
2021/04/20 08:40:46;;;;;;;47.05;38.00;;;15.20;99.90;;;;;;4891096;29;20471;-77
2021/04/20 08:43:36;;;;;;;53.50;40.92;;;15.40;99.90;;;;;;4890306;29;20743;-77
2021/04/20 08:46:31;;;;;;;44.90;38.03;;;15.60;99.90;;;;;;4872984;29;20053;-76
2021/04/20 08:49:05;;;;;;;48.85;38.50;;;15.50;99.90;;;;;;4869919;29;20518;-77
2021/04/20 08:51:59;;;;;;;47.58;38.90;;;15.40;99.90;;;;;;4900926;29;20123;-77
2021/04/20 08:55:14;;;;;;;47.50;38.80;;;15.40;99.90;;;;;;4875978;29;20053;-77
2021/04/20 08:58:16;;;;;;;49.20;40.10;;;15.50;99.90;;;;;;4825300;29;20072;-77
2021/04/20 10:47:11;;;;;;;47.47;40.72;;;17.70;99.90;;;;;;4879680;29;20049;-79
2021/04/20 10:49:39;;;;;;;47.17;39.33;;;17.70;99.90;;;;;;4890465;29;20061;-81
2021/04/20 10:52:10;;;;;;;47.20;40.83;;;17.70;99.90;;;;;;4879675;29;20454;-79
2021/04/20 10:54:39;;;;;;;50.30;42.20;;;17.60;99.90;;;;;;4864626;29;20053;-81
2021/04/20 10:57:07;;;;;;;48.03;40.97;;;17.80;99.90;;;;;;4877972;29;20268;-79
2021/04/20 10:59:36;;;;;;;50.53;43.97;;;17.90;99.90;;;;;;4862192;29;20065;-80
2021/04/20 11:02:11;;;;;;;53.67;43.58;;;17.80;99.90;;;;;;4832586;29;20045;-79
2021/04/20 11:04:43;;;;;;;51.13;43.88;;;17.50;99.90;;;;;;4851809;29;20051;-80
2021/04/20 11:07:26;;;;;;;48.28;41.78;;;17.40;99.90;;;;;;4862379;29;20057;-77
2021/04/20 11:10:03;;;;;;;47.53;42.20;;;17.50;99.90;;;;;;4862708;29;20144;-81
2021/04/20 11:12:30;;;;;;;51.72;44.15;;;17.70;99.90;;;;;;4860079;29;20082;-79
2021/04/20 11:14:57;;;;;;;47.80;42.13;;;17.80;99.90;;;;;;4878354;29;20072;-79
2021/04/20 11:17:31;;;;;;;53.72;45.03;;;18.10;99.90;;;;;;4880880;29;20055;-80
2021/04/20 11:20:29;;;;;;;49.00;43.30;;;18.00;99.90;;;;;;4874076;29;20494;-76
2021/04/20 11:23:02;;;;;;;55.22;44.78;;;18.20;99.90;;;;;;4857814;29;20056;-81
2021/04/20 11:25:33;;;;;;;49.78;44.35;;;18.30;99.90;;;;;;4904615;29;20049;-81
2021/04/20 11:28:07;;;;;;;53.30;44.00;;;18.10;99.90;;;;;;4891296;29;20049;-80
2021/04/20 11:30:36;;;;;;;51.95;45.95;;;18.00;99.90;;;;;;4859400;29;20088;-79
2021/04/20 11:33:14;;;;;;;53.35;47.83;;;17.90;99.90;;;;;;4872829;29;20053;-81
2021/04/20 11:35:47;;;;;;;51.47;45.60;;;17.90;99.90;;;;;;4869175;29;20045;-81
2021/04/20 11:38:16;;;;;;;49.47;44.20;;;18.10;99.90;;;;;;4867150;29;20171;-81
2021/04/20 11:40:51;;;;;;;50.35;44.97;;;18.30;99.90;;;;;;4875858;29;20093;-80
2021/04/20 11:43:17;;;;;;;52.10;46.58;;;18.80;99.90;;;;;;4887277;29;20079;-81
2021/04/20 11:45:45;;;;;;;52.88;45.97;;;18.90;99.90;;;;;;4882152;29;20132;-80
2021/04/20 11:48:14;;;;;;;54.10;47.80;;;18.70;99.90;;;;;;4883583;29;20485;-79
2021/04/20 11:50:50;;;;;;;51.78;45.40;;;18.70;99.90;;;;;;4851646;29;20195;-81
2021/04/20 11:53:18;;;;;;;52.70;44.97;;;18.70;99.90;;;;;;4878594;29;20105;-82
2021/04/20 11:55:47;;;;;;;50.72;45.17;;;18.80;99.90;;;;;;4865740;29;20041;-80
2021/04/20 11:58:30;;;;;;;51.10;45.83;;;18.90;99.90;;;;;;4839112;29;20072;-81
2021/04/20 12:01:05;;;;;;;52.13;46.55;;;18.80;99.90;;;;;;4866820;29;20052;-80
2021/04/20 12:03:34;;;;;;;50.65;45.22;;;18.60;99.90;;;;;;4884354;29;20048;-80
2021/04/20 12:06:01;;;;;;;51.08;45.00;;;18.80;99.90;;;;;;4897382;29;20045;-79
2021/04/20 12:08:32;;;;;;;52.03;46.42;;;18.80;99.90;;;;;;4868350;29;20053;-81
2021/04/20 12:11:00;;;;;;;53.30;47.50;;;18.70;99.90;;;;;;4882956;29;20052;-81
2021/04/20 12:13:41;;;;;;;53.40;46.85;;;18.80;99.90;;;;;;4851407;29;20060;-80
2021/04/20 12:16:09;;;;;;;52.55;46.88;;;18.90;99.90;;;;;;4883474;29;20578;-80
2021/04/20 12:18:37;;;;;;;50.50;45.17;;;19.10;99.90;;;;;;4898577;29;20080;-79
2021/04/20 12:21:07;;;;;;;50.05;44.72;;;19.30;99.90;;;;;;4891629;29;20053;-78
2021/04/20 12:23:48;;;;;;;48.63;43.20;;;19.40;99.90;;;;;;4882938;29;20085;-81
2021/04/20 12:26:16;;;;;;;50.35;44.92;;;19.40;99.90;;;;;;4887678;29;20077;-81
2021/04/20 12:28:50;;;;;;;52.78;47.03;;;19.50;99.90;;;;;;4882560;29;20061;-78
2021/04/20 12:31:26;;;;;;;50.78;45.25;;;19.40;99.90;;;;;;4897104;29;20554;-80
2021/04/20 12:33:53;;;;;;;51.38;45.28;;;19.20;99.90;;;;;;4879470;29;20049;-78
2021/04/20 12:36:38;;;;;;;49.40;44.28;;;19.10;99.90;;;;;;4825809;29;20074;-78
2021/04/20 12:39:09;;;;;;;48.17;43.17;;;18.80;99.90;;;;;;4880759;29;20057;-79
2021/04/20 12:41:36;;;;;;;48.45;43.25;;;18.80;99.90;;;;;;4870196;29;20334;-79
2021/04/20 12:44:14;;;;;;;51.75;46.25;;;19.20;99.90;;;;;;4883907;29;20056;-80
2021/04/20 12:46:41;;;;;;;52.08;46.38;;;19.20;99.90;;;;;;4896818;29;20428;-81
2021/04/20 12:49:10;;;;;;;51.47;45.45;;;19.10;99.90;;;;;;4880507;29;20513;-80
2021/04/20 12:51:41;;;;;;;53.50;46.80;;;18.50;99.90;;;;;;4858891;29;20061;-81
2021/04/20 12:54:11;;;;;;;36.25;32.25;;;18.20;99.90;;;;;;4893664;29;20085;-80
2021/04/20 12:56:39;;;;;;;36.22;30.15;;;17.60;99.90;;;;;;4847863;29;20121;-80
2021/04/20 12:59:20;;;;;;;33.53;29.67;;;16.50;99.90;;;;;;4849505;29;20589;-81
2021/04/20 13:01:52;;;;;;;31.35;27.98;;;15.90;99.90;;;;;;4879658;29;20073;-79
2021/04/20 13:04:31;;;;;;;28.45;25.52;;;15.30;99.90;;;;;;4865824;29;20140;-81
2021/04/20 13:06:59;;;;;;;29.05;26.33;;;14.50;99.90;;;;;;4880586;29;20113;-82
2021/04/20 13:09:37;;;;;;;40.60;29.60;;;14.20;99.90;;;;;;4880586;29;20085;-80
2021/04/20 13:12:10;;;;;;;51.45;35.45;;;13.80;99.90;;;;;;4881107;29;20132;-83
2021/04/20 13:14:38;;;;;;;51.85;40.22;;;13.40;99.90;;;;;;4879092;29;20056;-79
2021/04/20 13:17:06;;;;;;;89.65;46.28;;;12.90;99.90;;;;;;4849460;29;20053;-80
2021/04/20 13:19:37;;;;;;;57.85;39.80;;;12.90;99.90;;;;;;4883445;29;20053;-78
2021/04/20 13:22:05;;;;;;;64.82;44.90;;;12.90;99.90;;;;;;4878785;29;20049;-81
2021/04/20 13:24:34;;;;;;;83.03;47.83;;;12.80;99.90;;;;;;4863164;29;20136;-81
2021/04/20 13:27:01;;;;;;;50.00;36.42;;;12.50;99.90;;;;;;4862694;29;20049;-79
2021/04/20 13:29:30;;;;;;;47.60;32.70;;;12.10;99.90;;;;;;4846027;29;20296;-80
2021/04/20 13:32:08;;;;;;;36.70;30.67;;;11.80;99.90;;;;;;4859005;29;20057;-81
2021/04/20 13:34:45;;;;;;;39.75;33.40;;;11.50;99.90;;;;;;4857690;29;20056;-81
2021/04/20 13:37:35;;;;;;;33.30;26.65;;;11.40;99.90;;;;;;4893514;29;20056;-78
2021/04/20 13:40:11;;;;;;;45.30;33.65;;;11.40;99.90;;;;;;4860588;29;20140;-79
2021/04/20 13:42:39;;;;;;;;;;;11.60;99.90;;;;;;4876418;29;20053;-82
2021/04/20 13:45:14;;;;;;;42.38;30.13;;;11.60;99.90;;;;;;4860533;29;19991;-79
2021/04/20 13:47:44;;;;;;;38.42;28.88;;;11.60;99.90;;;;;;4861504;29;20465;-80
2021/04/20 13:50:27;;;;;;;33.78;24.45;;;11.70;99.90;;;;;;4844209;29;20266;-81
2021/04/20 13:52:56;;;;;;;30.30;25.15;;;11.70;99.90;;;;;;4874935;29;20549;-81
2021/04/20 13:55:35;;;;;;;25.15;22.33;;;11.70;99.90;;;;;;4876639;29;20063;-82
2021/04/20 13:58:25;;;;;;;29.50;23.90;;;11.80;99.90;;;;;;4860616;29;20061;-81
2021/04/20 14:00:53;;;;;;;29.48;22.33;;;11.70;99.90;;;;;;4875157;29;20056;-79
2021/04/20 14:03:22;;;;;;;27.02;20.75;;;11.80;99.90;;;;;;4876642;29;20057;-80
2021/04/20 14:06:11;;;;;;;31.85;22.55;;;11.70;99.90;;;;;;4862688;29;20600;-81
2021/04/20 14:08:40;;;;;;;27.98;20.70;;;11.40;99.90;;;;;;4861104;29;20068;-82
2021/04/20 14:11:08;;;;;;;35.88;23.95;;;11.30;99.90;;;;;;4878606;29;20132;-82
2021/04/20 14:13:42;;;;;;;22.33;16.17;;;11.50;99.90;;;;;;4875255;29;20052;-80
2021/04/20 14:16:13;;;;;;;23.50;20.80;;;11.70;99.90;;;;;;4895075;29;20056;-82
2021/04/20 14:18:40;;;;;;;23.75;20.90;;;11.90;99.90;;;;;;4875604;29;20116;-81
2021/04/20 14:21:19;;;;;;;24.60;18.85;;;12.30;99.90;;;;;;4876621;29;20049;-80
2021/04/20 14:23:50;;;;;;;20.33;16.55;;;12.20;99.90;;;;;;4900918;29;20647;-80
2021/04/20 14:26:20;;;;;;;22.77;16.42;;;11.90;99.90;;;;;;4895752;29;20147;-81
2021/04/20 14:28:49;;;;;;;18.63;15.80;;;12.00;99.90;;;;;;4875989;29;20060;-79
2021/04/20 14:31:16;;;;;;;18.33;15.40;;;11.80;99.90;;;;;;4891208;29;20117;-79
2021/04/20 14:33:48;;;;;;;23.02;15.77;;;11.80;99.90;;;;;;4865506;29;20072;-83
2021/04/20 14:36:24;;;;;;;19.55;15.00;;;11.90;99.90;;;;;;4876885;29;20061;-80
2021/04/20 14:38:50;;;;;;;;;;;11.90;99.90;;;;;;4867964;29;20081;-83
2021/04/20 14:41:17;;;;;;;22.65;18.67;;;12.10;99.90;;;;;;4848020;29;19924;-79
2021/04/20 14:43:58;;;;;;;32.83;16.60;;;12.40;99.90;;;;;;4863414;29;20070;-80
2021/04/20 14:46:30;;;;;;;23.05;19.35;;;12.90;99.90;;;;;;4888712;29;20048;-79